createdAt,value
2022-09-17T00:00:59.005Z,62.51
2022-09-17T00:03:28.488Z,62.40
2022-09-17T00:06:02.118Z,62.03
2022-09-17T00:08:29.423Z,62.29
2022-09-17T00:10:56.044Z,62.05
2022-09-17T00:13:22.848Z,62.11
2022-09-17T00:15:51.094Z,61.87
2022-09-17T00:18:17.746Z,61.89
2022-09-17T00:20:46.401Z,61.88
2022-09-17T00:23:14.571Z,62.35
2022-09-17T00:25:42.994Z,62.48
2022-09-17T00:28:09.764Z,62.35
2022-09-17T00:30:43.285Z,61.81
2022-09-17T00:33:12.703Z,61.89
2022-09-17T00:35:39.063Z,61.65
2022-09-17T00:38:05.815Z,62.00
2022-09-17T00:40:32.227Z,62.38
2022-09-17T00:42:58.758Z,62.12
2022-09-17T00:45:26.251Z,62.11
2022-09-17T00:47:59.798Z,62.74
2022-09-17T00:50:40.639Z,62.60
2022-09-17T00:53:12.072Z,62.69
2022-09-17T00:55:47.241Z,64.28
2022-09-17T00:58:16.868Z,64.85
2022-09-17T01:00:47.228Z,65.54
2022-09-17T01:03:13.985Z,66.89
2022-09-17T01:05:49.689Z,67.94
2022-09-17T01:08:29.150Z,68.70
2022-09-17T01:11:33.096Z,68.65
2022-09-17T01:14:18.362Z,70.44
2022-09-17T01:17:11.996Z,70.02
2022-09-17T01:20:19.814Z,69.36
2022-09-17T01:23:17.656Z,68.31
2022-09-17T01:26:04.012Z,68.88
2022-09-17T01:28:41.077Z,69.30
2022-09-17T01:31:21.731Z,68.60
2022-09-17T01:34:04.641Z,68.58
2022-09-17T01:37:05.167Z,67.86
2022-09-17T01:39:44.046Z,68.02
2022-09-17T01:42:36.135Z,69.56
2022-09-17T01:45:43.783Z,68.07
2022-09-17T01:48:35.300Z,67.20
2022-09-17T01:51:16.349Z,66.44
2022-09-17T01:53:52.487Z,65.64
2022-09-17T01:56:26.418Z,65.30
2022-09-17T01:59:16.882Z,65.20
2022-09-17T02:01:49.495Z,64.68
2022-09-17T02:04:26.128Z,64.88
2022-09-17T02:07:00.100Z,64.63
2022-09-17T02:09:57.800Z,64.36
2022-09-17T02:12:31.219Z,64.01
2022-09-17T02:15:01.340Z,64.42
2022-09-17T02:17:36.961Z,64.75
2022-09-17T02:20:04.005Z,65.83
2022-09-17T02:22:43.629Z,65.21
2022-09-17T02:25:31.215Z,66.64
2022-09-17T02:28:20.874Z,66.40
2022-09-17T02:30:47.342Z,68.73
2022-09-17T02:33:15.752Z,70.63
2022-09-17T02:35:44.104Z,69.63
2022-09-17T02:38:10.759Z,69.01
2022-09-17T02:40:46.276Z,68.49
2022-09-17T02:43:43.524Z,67.99
2022-09-17T02:46:43.024Z,69.63
2022-09-17T02:49:28.807Z,70.71
2022-09-17T02:52:55.294Z,71.59
2022-09-17T02:56:01.101Z,71.64
2022-09-17T02:58:41.307Z,73.92
2022-09-17T03:01:44.590Z,74.13
2022-09-17T03:04:33.008Z,74.88
2022-09-17T03:07:29.213Z,74.34
2022-09-17T03:10:04.157Z,74.94
2022-09-17T03:12:48.758Z,75.24
2022-09-17T03:15:28.216Z,73.81
2022-09-17T03:18:13.599Z,73.66
2022-09-17T03:21:11.965Z,72.28
2022-09-17T03:24:28.273Z,70.92
2022-09-17T03:27:01.877Z,70.99
2022-09-17T03:29:28.251Z,71.48
2022-09-17T03:32:13.603Z,73.08
2022-09-17T03:34:46.965Z,73.75
2022-09-17T03:37:13.697Z,74.46
2022-09-17T03:40:04.115Z,74.14
2022-09-17T03:45:20.731Z,75.65
2022-09-17T03:48:04.657Z,75.93
2022-09-17T03:50:46.972Z,76.53
2022-09-17T03:53:40.368Z,76.19
2022-09-17T03:56:27.572Z,76.03
2022-09-17T03:59:23.097Z,76.14
2022-09-17T04:02:44.523Z,76.58
2022-09-17T04:05:25.357Z,76.65
2022-09-17T04:08:03.622Z,76.01
2022-09-17T04:10:46.724Z,74.43
2022-09-17T04:13:26.910Z,73.43
2022-09-17T04:16:05.681Z,74.21
2022-09-17T04:18:32.612Z,74.10
2022-09-17T04:21:09.531Z,73.06
2022-09-17T04:23:36.043Z,73.59
2022-09-17T04:26:02.351Z,73.36
2022-09-17T04:28:28.672Z,72.92
2022-09-17T04:30:55.256Z,73.13
2022-09-17T04:33:21.884Z,73.38
2022-09-17T04:35:48.481Z,74.05
2022-09-17T04:38:18.591Z,74.41
2022-09-17T04:40:46.361Z,74.82
2022-09-17T04:43:13.064Z,74.41
2022-09-17T04:45:39.380Z,73.44
2022-09-17T04:48:05.804Z,72.96
2022-09-17T04:50:32.142Z,71.60
2022-09-17T04:52:58.823Z,72.84
2022-09-17T04:55:27.360Z,72.32
2022-09-17T04:57:54.067Z,72.95
2022-09-17T05:00:22.434Z,73.74
2022-09-17T05:02:51.550Z,73.38
2022-09-17T05:05:18.771Z,73.22
2022-09-17T05:07:45.420Z,73.24
2022-09-17T05:10:13.167Z,74.26
2022-09-17T05:12:39.738Z,74.75
2022-09-17T05:15:06.841Z,74.65
2022-09-17T05:17:33.168Z,75.02
2022-09-17T05:19:59.493Z,75.17
2022-09-17T05:22:25.934Z,74.83
2022-09-17T05:24:52.253Z,73.75
2022-09-17T05:27:18.692Z,73.67
2022-09-17T05:29:45.250Z,75.85
2022-09-17T05:32:11.621Z,76.23
2022-09-17T05:34:37.967Z,76.15
2022-09-17T05:37:04.363Z,76.18
2022-09-17T05:39:30.652Z,76.21
2022-09-17T05:41:57.072Z,76.02
2022-09-17T05:44:23.620Z,75.66
2022-09-17T05:46:53.346Z,75.31
2022-09-17T05:49:19.896Z,76.35
2022-09-17T05:51:46.265Z,75.42
2022-09-17T05:54:12.594Z,75.28
2022-09-17T05:56:38.911Z,75.81
2022-09-17T05:59:05.239Z,75.59
2022-09-17T06:01:31.644Z,74.95
2022-09-17T06:03:58.399Z,74.47
2022-09-17T06:06:24.737Z,75.56
2022-09-17T06:08:51.491Z,75.32
2022-09-17T06:11:17.781Z,74.85
2022-09-17T06:13:44.255Z,74.69
2022-09-17T06:16:10.651Z,74.54
2022-09-17T06:18:37.264Z,75.89
2022-09-17T06:21:05.419Z,75.16
2022-09-17T06:23:35.108Z,75.23
2022-09-17T06:26:02.770Z,76.51
2022-09-17T06:28:29.882Z,76.08
2022-09-17T06:31:01.556Z,75.80
2022-09-17T06:33:27.897Z,76.04
2022-09-17T06:36:00.538Z,75.08
2022-09-17T06:38:28.014Z,74.26
2022-09-17T06:40:54.576Z,73.12
2022-09-17T06:43:21.837Z,72.86
2022-09-17T06:45:55.407Z,73.09
2022-09-17T06:48:22.988Z,73.03
2022-09-17T06:50:50.295Z,74.16
2022-09-17T06:53:16.697Z,74.50
2022-09-17T06:55:43.518Z,74.75
2022-09-17T06:58:09.811Z,73.81
2022-09-17T07:00:36.358Z,74.01
2022-09-17T07:03:02.885Z,74.25
2022-09-17T07:05:30.135Z,74.21
2022-09-17T07:07:56.492Z,74.13
2022-09-17T07:10:27.085Z,72.91
2022-09-17T07:12:54.417Z,73.51
2022-09-17T07:15:21.395Z,73.20
2022-09-17T07:17:48.333Z,72.97
2022-09-17T07:20:14.849Z,72.50
2022-09-17T07:22:41.163Z,72.55
2022-09-17T07:25:08.137Z,73.58
2022-09-17T07:27:34.456Z,74.34
2022-09-17T07:30:00.793Z,73.38
2022-09-17T07:32:30.064Z,72.72
2022-09-17T07:34:56.604Z,72.01
2022-09-17T07:37:23.111Z,72.18
2022-09-17T07:39:49.737Z,72.22
2022-09-17T07:42:16.121Z,71.57
2022-09-17T07:44:42.477Z,72.18
2022-09-17T07:47:09.886Z,73.26
2022-09-17T07:49:36.464Z,73.71
2022-09-17T07:52:06.229Z,73.36
2022-09-17T07:54:33.765Z,72.52
2022-09-17T07:57:00.934Z,71.69
2022-09-17T07:59:27.212Z,72.38
2022-09-17T08:01:53.662Z,72.92
2022-09-17T08:04:20.135Z,72.98
2022-09-17T08:06:48.253Z,71.66
2022-09-17T08:09:15.849Z,70.98
2022-09-17T08:11:58.289Z,70.28
2022-09-17T08:14:29.413Z,70.57
2022-09-17T08:16:56.870Z,71.34
2022-09-17T08:19:23.387Z,73.31
2022-09-17T08:21:49.691Z,74.36
2022-09-17T08:24:15.977Z,74.26
2022-09-17T08:26:42.305Z,73.32
2022-09-17T08:29:08.835Z,74.29
2022-09-17T08:31:35.296Z,74.77
2022-09-17T08:34:09.593Z,73.71
2022-09-17T08:36:36.775Z,73.57
2022-09-17T08:39:03.765Z,73.35
2022-09-17T08:41:46.084Z,72.93
2022-09-17T08:44:18.545Z,71.63
2022-09-17T08:47:00.792Z,70.83
2022-09-17T08:49:36.241Z,70.46
2022-09-17T08:52:30.497Z,70.70
2022-09-17T08:55:18.258Z,70.43
2022-09-17T08:58:23.180Z,70.64
2022-09-17T09:00:52.465Z,69.43
2022-09-17T09:03:46.800Z,68.35
2022-09-17T09:06:15.547Z,68.48
2022-09-17T09:08:51.017Z,69.13
2022-09-17T09:11:26.158Z,68.49
2022-09-17T09:14:05.223Z,67.63
2022-09-17T09:16:33.982Z,66.68
2022-09-17T09:19:13.462Z,65.45
2022-09-17T09:21:53.591Z,64.42
2022-09-17T09:24:26.071Z,65.04
2022-09-17T09:27:27.352Z,64.93
2022-09-17T09:30:13.624Z,66.10
2022-09-17T09:33:05.228Z,66.22
2022-09-17T09:35:43.740Z,65.18
2022-09-17T09:38:27.984Z,61.87
2022-09-17T09:41:06.431Z,62.27
2022-09-17T09:44:02.880Z,63.13
2022-09-17T09:46:46.985Z,62.63
2022-09-17T09:49:51.066Z,63.84
2022-09-17T09:52:58.548Z,64.63
2022-09-17T09:55:48.091Z,64.88
2022-09-17T09:58:26.274Z,64.01
2022-09-17T10:00:52.645Z,63.95
2022-09-17T10:03:23.225Z,64.40
2022-09-17T10:05:53.838Z,64.18
2022-09-17T10:08:20.489Z,63.93
2022-09-17T10:11:11.167Z,64.25
2022-09-17T10:13:37.847Z,63.27
2022-09-17T10:16:29.053Z,62.03
2022-09-17T10:19:20.269Z,61.76
2022-09-17T10:21:46.620Z,61.24
2022-09-17T10:24:24.992Z,60.94
2022-09-17T10:26:52.925Z,62.36
2022-09-17T10:29:20.964Z,60.96
2022-09-17T10:31:48.716Z,60.86
2022-09-17T10:34:25.565Z,59.62
2022-09-17T10:36:52.235Z,59.65
2022-09-17T10:39:43.972Z,60.28
2022-09-17T10:42:18.868Z,59.58
2022-09-17T10:45:00.731Z,60.39
2022-09-17T10:47:31.477Z,60.31
2022-09-17T10:50:07.871Z,60.29
2022-09-17T10:52:42.032Z,59.56
2022-09-17T10:55:27.764Z,59.91
2022-09-17T10:58:13.296Z,60.53
2022-09-17T11:01:12.084Z,60.81
2022-09-17T11:03:44.002Z,60.05
2022-09-17T11:06:56.208Z,60.19
2022-09-17T11:10:02.699Z,60.77
2022-09-17T11:12:55.132Z,60.88
2022-09-17T11:16:01.873Z,61.40
2022-09-17T11:18:51.172Z,60.95
2022-09-17T11:21:51.941Z,60.53
2022-09-17T11:24:51.552Z,60.54
2022-09-17T11:27:24.997Z,60.67
2022-09-17T11:30:02.885Z,60.40
2022-09-17T11:32:55.928Z,59.42
2022-09-17T11:35:33.350Z,59.31
2022-09-17T11:38:15.997Z,59.30
2022-09-17T11:40:48.193Z,58.29
2022-09-17T11:43:34.042Z,58.59
2022-09-17T11:46:32.710Z,58.14
2022-09-17T11:49:20.514Z,57.86
2022-09-17T11:52:01.863Z,57.47
2022-09-17T11:54:53.719Z,56.46
2022-09-17T11:57:54.664Z,56.82
2022-09-17T12:00:23.851Z,55.33
2022-09-17T12:02:58.293Z,55.85
2022-09-17T12:05:48.223Z,56.03
2022-09-17T12:09:13.107Z,57.56
2022-09-17T12:12:04.179Z,58.01
2022-09-17T12:14:55.333Z,57.48
2022-09-17T12:17:24.601Z,58.25
2022-09-17T12:20:17.958Z,58.46
2022-09-17T12:22:47.889Z,59.13
2022-09-17T12:25:14.627Z,58.52
2022-09-17T12:28:02.769Z,59.00
2022-09-17T12:30:49.145Z,57.06
2022-09-17T12:33:45.555Z,56.66
2022-09-17T12:36:53.980Z,57.69
2022-09-17T12:39:48.325Z,56.10
2022-09-17T12:42:42.600Z,55.41
2022-09-17T12:45:28.938Z,55.64
2022-09-17T12:48:17.927Z,56.67
2022-09-17T12:51:12.785Z,55.86
2022-09-17T12:54:05.020Z,55.96
2022-09-17T12:57:08.835Z,57.06
2022-09-17T12:59:44.238Z,56.53
2022-09-17T13:02:22.507Z,55.23
2022-09-17T13:05:23.092Z,54.38
2022-09-17T13:08:14.131Z,53.66
2022-09-17T13:10:50.909Z,53.48
2022-09-17T13:13:41.939Z,54.88
2022-09-17T13:16:13.321Z,56.15
2022-09-17T13:19:15.977Z,57.35
2022-09-17T13:22:12.627Z,56.72
2022-09-17T13:24:39.250Z,56.81
2022-09-17T13:27:06.107Z,56.98
2022-09-17T13:29:47.332Z,56.60
2022-09-17T13:32:32.249Z,55.89
2022-09-17T13:35:13.949Z,55.31
2022-09-17T13:37:52.640Z,56.30
2022-09-17T13:40:25.087Z,55.37
2022-09-17T13:42:55.770Z,56.37
2022-09-17T13:45:25.201Z,56.66
2022-09-17T13:48:02.429Z,57.19
2022-09-17T13:50:33.429Z,57.92
2022-09-17T13:53:17.120Z,57.40
2022-09-17T13:55:54.686Z,58.07
2022-09-17T13:58:20.945Z,59.12
2022-09-17T14:01:07.738Z,59.58
2022-09-17T14:03:34.205Z,59.55
2022-09-17T14:06:03.291Z,61.17
2022-09-17T14:08:45.646Z,61.47
2022-09-17T14:11:24.135Z,60.36
2022-09-17T14:13:52.183Z,60.62
2022-09-17T14:16:42.464Z,60.51
2022-09-17T14:19:27.758Z,60.76
2022-09-17T14:21:57.475Z,61.10
2022-09-17T14:24:27.404Z,62.13
2022-09-17T14:27:19.710Z,61.94
2022-09-17T14:30:10.551Z,63.32
2022-09-17T14:32:43.998Z,63.47
2022-09-17T14:35:29.108Z,62.64
2022-09-17T14:37:59.168Z,63.33
2022-09-17T14:40:26.979Z,63.07
2022-09-17T14:42:56.713Z,61.76
2022-09-17T14:45:29.368Z,62.57
2022-09-17T14:48:32.702Z,62.73
2022-09-17T14:51:12.510Z,63.06
2022-09-17T14:53:38.825Z,63.48
2022-09-17T14:56:05.443Z,63.45
2022-09-17T14:58:39.751Z,62.26
2022-09-17T15:01:06.117Z,62.22
2022-09-17T15:03:32.392Z,61.88
2022-09-17T15:05:58.680Z,61.49
2022-09-17T15:08:28.770Z,60.93
2022-09-17T15:10:58.452Z,59.67
2022-09-17T15:13:35.682Z,60.42
2022-09-17T15:16:03.671Z,60.67
2022-09-17T15:18:52.267Z,61.75
2022-09-17T15:21:25.598Z,62.16
2022-09-17T15:23:57.802Z,61.03
2022-09-17T15:26:32.726Z,59.83
2022-09-17T15:29:00.168Z,58.10
2022-09-17T15:31:28.440Z,58.81
2022-09-17T15:33:54.802Z,57.73
2022-09-17T15:36:25.018Z,58.07
2022-09-17T15:38:51.585Z,59.19
2022-09-17T15:41:34.511Z,60.69
2022-09-17T15:44:28.570Z,61.39
2022-09-17T15:46:56.743Z,61.36
2022-09-17T15:49:35.954Z,61.59
2022-09-17T15:52:31.322Z,63.17
2022-09-17T15:54:59.125Z,63.06
2022-09-17T15:57:30.012Z,64.44
2022-09-17T16:00:05.425Z,63.68
2022-09-17T16:02:32.626Z,64.32
2022-09-17T16:05:43.581Z,65.50
2022-09-17T16:08:21.620Z,64.10
2022-09-17T16:10:47.898Z,62.71
2022-09-17T16:13:14.407Z,63.46
2022-09-17T16:15:40.796Z,63.55
2022-09-17T16:18:12.195Z,60.67
2022-09-17T16:20:38.484Z,60.14
2022-09-17T16:23:04.800Z,61.52
2022-09-17T16:25:31.210Z,65.28
2022-09-17T16:28:01.632Z,66.58
2022-09-17T16:30:28.118Z,66.44
2022-09-17T16:32:54.676Z,66.71
2022-09-17T16:35:23.701Z,66.17
2022-09-17T16:37:51.602Z,67.16
2022-09-17T16:40:19.244Z,64.46
2022-09-17T16:42:48.743Z,64.56
2022-09-17T16:45:15.766Z,64.58
2022-09-17T16:47:42.891Z,63.60
2022-09-17T16:50:12.410Z,64.59
2022-09-17T16:52:38.821Z,63.66
2022-09-17T16:55:06.570Z,63.40
2022-09-17T16:57:33.335Z,64.91
2022-09-17T17:00:00.292Z,63.42
2022-09-17T17:02:26.876Z,63.14
2022-09-17T17:04:54.159Z,63.38
2022-09-17T17:07:20.856Z,63.13
2022-09-17T17:09:47.138Z,63.21
2022-09-17T17:12:13.521Z,63.45
2022-09-17T17:14:39.837Z,64.95
2022-09-17T17:17:06.181Z,64.65
2022-09-17T17:19:34.605Z,64.27
2022-09-17T17:22:00.919Z,64.25
2022-09-17T17:24:27.222Z,64.77
2022-09-17T17:26:53.524Z,64.29
2022-09-17T17:29:19.835Z,64.24
2022-09-17T17:31:46.188Z,63.75
2022-09-17T17:34:12.573Z,64.86
2022-09-17T17:36:39.003Z,65.66
2022-09-17T17:39:05.415Z,66.12
2022-09-17T17:41:31.792Z,66.36
2022-09-17T17:43:58.174Z,65.99
2022-09-17T17:46:24.588Z,65.93
2022-09-17T17:48:51.344Z,65.51
2022-09-17T17:51:19.410Z,65.85
2022-09-17T17:53:46.688Z,65.18
2022-09-17T17:56:14.673Z,65.05
2022-09-17T17:58:41.315Z,65.06
2022-09-17T18:01:20.084Z,65.54
2022-09-17T18:03:46.922Z,65.10
2022-09-17T18:06:13.775Z,64.82
2022-09-17T18:08:42.464Z,64.82
2022-09-17T18:11:10.408Z,64.96
2022-09-17T18:13:38.771Z,65.33
2022-09-17T18:16:07.522Z,64.85
2022-09-17T18:18:36.311Z,63.88
2022-09-17T18:21:07.334Z,64.58
2022-09-17T18:23:35.893Z,64.06
2022-09-17T18:26:03.270Z,64.38
2022-09-17T18:28:30.912Z,63.97
2022-09-17T18:31:03.739Z,63.60
2022-09-17T18:33:30.119Z,64.13
2022-09-17T18:36:02.027Z,63.46
2022-09-17T18:38:29.189Z,63.89
2022-09-17T18:40:55.649Z,63.48
2022-09-17T18:43:22.012Z,62.78
2022-09-17T18:45:56.056Z,63.25
2022-09-17T18:48:23.472Z,64.13
2022-09-17T18:51:00.931Z,64.23
2022-09-17T18:53:28.685Z,63.15
2022-09-17T18:55:58.018Z,64.14
2022-09-17T18:58:24.443Z,64.89
2022-09-17T19:00:51.004Z,65.43
2022-09-17T19:03:17.366Z,67.53
2022-09-17T19:05:43.746Z,69.00
2022-09-17T19:08:10.166Z,68.87
2022-09-17T19:10:36.568Z,68.68
2022-09-17T19:13:03.504Z,68.94
2022-09-17T19:15:30.352Z,68.95
2022-09-17T19:17:58.414Z,69.85
2022-09-17T19:20:25.749Z,70.11
2022-09-17T19:22:52.797Z,70.21
2022-09-17T19:25:23.144Z,70.76
2022-09-17T19:27:49.595Z,71.90
2022-09-17T19:30:16.034Z,70.49
2022-09-17T19:32:45.833Z,70.89
2022-09-17T19:35:12.816Z,72.44
2022-09-17T19:37:39.171Z,72.68
2022-09-17T19:40:06.730Z,73.31
2022-09-17T19:42:33.241Z,74.29
2022-09-17T19:44:59.622Z,74.47
2022-09-17T19:47:26.029Z,75.73
2022-09-17T19:49:52.484Z,76.20
2022-09-17T19:52:19.787Z,75.60
2022-09-17T19:54:46.665Z,76.36
2022-09-17T19:57:13.183Z,75.91
2022-09-17T19:59:39.573Z,76.05
2022-09-17T20:02:06.002Z,76.00
2022-09-17T20:04:32.406Z,75.54
2022-09-17T20:07:01.647Z,75.89
2022-09-17T20:09:27.992Z,76.10
2022-09-17T20:11:54.477Z,76.10
2022-09-17T20:14:21.206Z,76.41
2022-09-17T20:16:47.682Z,76.60
2022-09-17T20:19:16.473Z,77.77
2022-09-17T20:21:43.010Z,78.97
2022-09-17T20:24:09.342Z,79.07
2022-09-17T20:26:36.396Z,78.50
2022-09-17T20:29:06.226Z,78.79
2022-09-17T20:31:33.158Z,79.62
2022-09-17T20:34:01.917Z,78.74
2022-09-17T20:36:31.391Z,80.37
2022-09-17T20:39:21.136Z,79.63
2022-09-17T20:41:44.702Z,80.34
2022-09-17T20:44:11.240Z,79.12
2022-09-17T20:46:37.678Z,78.89
2022-09-17T20:49:04.280Z,79.06
2022-09-17T20:51:32.596Z,79.49
2022-09-17T20:53:59.099Z,79.54
2022-09-17T20:56:28.719Z,78.87
2022-09-17T20:59:03.898Z,78.89
2022-09-17T21:01:34.365Z,78.54
2022-09-17T21:04:02.023Z,78.41
2022-09-17T21:06:30.946Z,78.37
2022-09-17T21:08:59.991Z,77.05
2022-09-17T21:11:27.989Z,76.03
2022-09-17T21:13:54.421Z,75.85
2022-09-17T21:16:21.016Z,77.02
2022-09-17T21:18:48.904Z,77.24
2022-09-17T21:21:17.404Z,76.81
2022-09-17T21:23:44.278Z,76.95
2022-09-17T21:26:22.337Z,76.77
2022-09-17T21:28:50.487Z,76.62
2022-09-17T21:31:21.381Z,74.58
2022-09-17T21:33:51.556Z,75.62
2022-09-17T21:36:19.936Z,74.72
2022-09-17T21:38:54.077Z,76.28
2022-09-17T21:41:21.842Z,74.87
2022-09-17T21:43:48.491Z,74.21
2022-09-17T21:46:21.474Z,74.42
2022-09-17T21:48:50.164Z,74.09
2022-09-17T21:51:19.889Z,73.56
2022-09-17T21:53:50.341Z,73.05
2022-09-17T21:56:18.068Z,72.32
2022-09-17T21:58:45.891Z,73.15
2022-09-17T22:01:16.042Z,71.83
2022-09-17T22:03:42.841Z,72.58
2022-09-17T22:06:18.415Z,72.53
2022-09-17T22:08:45.941Z,71.76
2022-09-17T22:11:15.227Z,72.60
2022-09-17T22:13:42.243Z,72.66
2022-09-17T22:16:10.010Z,72.64
2022-09-17T22:18:37.715Z,73.11
2022-09-17T22:21:19.063Z,72.41
2022-09-17T22:23:45.407Z,72.28
2022-09-17T22:26:12.204Z,71.81
2022-09-17T22:28:38.749Z,72.03
2022-09-17T22:31:10.398Z,71.77
2022-09-17T22:33:39.823Z,72.94
2022-09-17T22:36:15.456Z,72.44
2022-09-17T22:38:46.457Z,73.29
2022-09-17T22:41:15.806Z,73.49
2022-09-17T22:43:42.130Z,73.80
2022-09-17T22:46:13.814Z,73.32
2022-09-17T22:48:40.736Z,73.91
2022-09-17T22:51:07.662Z,73.50
2022-09-17T22:53:34.948Z,74.21
2022-09-17T22:56:02.169Z,72.99
2022-09-17T22:58:28.842Z,73.90
2022-09-17T23:00:55.642Z,73.43
2022-09-17T23:03:23.094Z,73.24
2022-09-17T23:05:49.588Z,73.68
2022-09-17T23:08:16.021Z,73.88
2022-09-17T23:10:43.234Z,74.40
2022-09-17T23:13:10.946Z,73.46
2022-09-17T23:15:38.439Z,73.86
2022-09-17T23:18:05.088Z,73.20
2022-09-17T23:20:32.518Z,73.17
2022-09-17T23:22:59.950Z,71.94
2022-09-17T23:25:27.233Z,72.04
2022-09-17T23:27:55.465Z,71.61
2022-09-17T23:30:22.908Z,71.83
2022-09-17T23:32:55.969Z,71.20
2022-09-17T23:35:24.124Z,71.92
2022-09-17T23:37:50.964Z,71.44
2022-09-17T23:40:18.271Z,71.23
2022-09-17T23:42:44.665Z,71.50
2022-09-17T23:45:11.046Z,71.25
2022-09-17T23:47:37.333Z,70.72
2022-09-17T23:50:04.313Z,70.34
2022-09-17T23:52:30.815Z,71.11
2022-09-17T23:54:58.535Z,70.40
2022-09-17T23:57:25.557Z,70.14
2022-09-17T23:59:52.986Z,69.75
